sensor_id;sensor_type;location;lat;lon;timestamp;temperature;humidity
6256;DHT22;3161;48.794;9.784;2023-03-08T00:00:57;5.20;90.10
6256;DHT22;3161;48.794;9.784;2023-03-08T00:03:25;5.20;90.30
6256;DHT22;3161;48.794;9.784;2023-03-08T00:05:53;5.10;90.20
6256;DHT22;3161;48.794;9.784;2023-03-08T00:08:20;5.20;90.30
6256;DHT22;3161;48.794;9.784;2023-03-08T00:10:48;5.10;90.80
6256;DHT22;3161;48.794;9.784;2023-03-08T00:13:15;5.10;90.30
6256;DHT22;3161;48.794;9.784;2023-03-08T00:15:43;5.20;90.30
6256;DHT22;3161;48.794;9.784;2023-03-08T00:18:10;5.20;90.10
6256;DHT22;3161;48.794;9.784;2023-03-08T00:20:38;5.20;90.20
6256;DHT22;3161;48.794;9.784;2023-03-08T00:23:07;5.20;90.20
6256;DHT22;3161;48.794;9.784;2023-03-08T00:25:35;5.20;90.30
6256;DHT22;3161;48.794;9.784;2023-03-08T00:28:02;5.20;90.30
6256;DHT22;3161;48.794;9.784;2023-03-08T00:30:30;5.20;90.20
6256;DHT22;3161;48.794;9.784;2023-03-08T00:32:57;5.20;90.30
6256;DHT22;3161;48.794;9.784;2023-03-08T00:35:25;5.20;90.10
6256;DHT22;3161;48.794;9.784;2023-03-08T00:37:52;5.20;90.10
6256;DHT22;3161;48.794;9.784;2023-03-08T00:40:20;5.20;90.10
6256;DHT22;3161;48.794;9.784;2023-03-08T00:42:47;5.20;90.20
6256;DHT22;3161;48.794;9.784;2023-03-08T00:45:15;5.20;90.30
6256;DHT22;3161;48.794;9.784;2023-03-08T00:47:42;5.20;90.30
6256;DHT22;3161;48.794;9.784;2023-03-08T00:50:10;5.20;90.30
6256;DHT22;3161;48.794;9.784;2023-03-08T00:52:38;5.20;90.40
6256;DHT22;3161;48.794;9.784;2023-03-08T00:55:06;5.10;90.50
6256;DHT22;3161;48.794;9.784;2023-03-08T00:57:34;5.10;90.50
6256;DHT22;3161;48.794;9.784;2023-03-08T01:00:01;5.10;90.60
6256;DHT22;3161;48.794;9.784;2023-03-08T01:02:31;5.10;90.60
6256;DHT22;3161;48.794;9.784;2023-03-08T01:04:59;5.10;90.80
6256;DHT22;3161;48.794;9.784;2023-03-08T01:07:26;5.10;90.90
6256;DHT22;3161;48.794;9.784;2023-03-08T01:09:54;5.10;91.00
6256;DHT22;3161;48.794;9.784;2023-03-08T01:12:22;5.10;91.00
6256;DHT22;3161;48.794;9.784;2023-03-08T01:14:52;5.10;90.90
6256;DHT22;3161;48.794;9.784;2023-03-08T01:17:20;5.10;91.10
6256;DHT22;3161;48.794;9.784;2023-03-08T01:19:47;5.10;91.30
6256;DHT22;3161;48.794;9.784;2023-03-08T01:22:15;5.10;91.30
6256;DHT22;3161;48.794;9.784;2023-03-08T01:24:47;5.10;91.20
6256;DHT22;3161;48.794;9.784;2023-03-08T01:27:15;5.00;91.30
6256;DHT22;3161;48.794;9.784;2023-03-08T01:29:43;5.00;91.40
6256;DHT22;3161;48.794;9.784;2023-03-08T01:32:11;5.00;91.50
6256;DHT22;3161;48.794;9.784;2023-03-08T01:34:39;5.00;91.60
6256;DHT22;3161;48.794;9.784;2023-03-08T01:37:06;5.00;91.60
6256;DHT22;3161;48.794;9.784;2023-03-08T01:39:34;5.00;91.60
6256;DHT22;3161;48.794;9.784;2023-03-08T01:42:03;5.00;91.70
6256;DHT22;3161;48.794;9.784;2023-03-08T01:44:51;4.90;91.80
6256;DHT22;3161;48.794;9.784;2023-03-08T01:47:22;4.90;91.80
6256;DHT22;3161;48.794;9.784;2023-03-08T01:49:51;4.90;91.80
6256;DHT22;3161;48.794;9.784;2023-03-08T01:52:22;5.00;91.90
6256;DHT22;3161;48.794;9.784;2023-03-08T01:54:57;3.90;91.50
6256;DHT22;3161;48.794;9.784;2023-03-08T01:57:31;5.00;91.90
6256;DHT22;3161;48.794;9.784;2023-03-08T02:00:03;5.00;91.90
6256;DHT22;3161;48.794;9.784;2023-03-08T02:02:33;5.00;92.00
6256;DHT22;3161;48.794;9.784;2023-03-08T02:05:00;4.90;92.00
6256;DHT22;3161;48.794;9.784;2023-03-08T02:07:28;4.90;92.50
6256;DHT22;3161;48.794;9.784;2023-03-08T02:09:55;5.00;92.10
6256;DHT22;3161;48.794;9.784;2023-03-08T02:12:23;4.90;92.20
6256;DHT22;3161;48.794;9.784;2023-03-08T02:14:52;4.90;92.10
6256;DHT22;3161;48.794;9.784;2023-03-08T02:17:21;4.90;92.20
6256;DHT22;3161;48.794;9.784;2023-03-08T02:19:51;4.90;92.20
6256;DHT22;3161;48.794;9.784;2023-03-08T02:22:19;4.90;92.40
6256;DHT22;3161;48.794;9.784;2023-03-08T02:24:47;4.90;92.50
6256;DHT22;3161;48.794;9.784;2023-03-08T02:27:20;4.80;92.90
6256;DHT22;3161;48.794;9.784;2023-03-08T02:29:48;4.80;93.00
6256;DHT22;3161;48.794;9.784;2023-03-08T02:32:16;4.80;93.20
6256;DHT22;3161;48.794;9.784;2023-03-08T02:34:44;4.70;93.10
6256;DHT22;3161;48.794;9.784;2023-03-08T02:37:11;4.70;93.60
6256;DHT22;3161;48.794;9.784;2023-03-08T02:39:39;4.70;93.40
6256;DHT22;3161;48.794;9.784;2023-03-08T02:42:07;4.70;93.60
6256;DHT22;3161;48.794;9.784;2023-03-08T02:44:34;4.70;93.50
6256;DHT22;3161;48.794;9.784;2023-03-08T02:47:02;4.70;93.10
6256;DHT22;3161;48.794;9.784;2023-03-08T02:49:29;4.70;93.30
6256;DHT22;3161;48.794;9.784;2023-03-08T02:51:57;4.60;92.90
6256;DHT22;3161;48.794;9.784;2023-03-08T02:54:24;4.70;93.70
6256;DHT22;3161;48.794;9.784;2023-03-08T02:56:52;4.70;93.60
6256;DHT22;3161;48.794;9.784;2023-03-08T02:59:20;4.70;93.50
6256;DHT22;3161;48.794;9.784;2023-03-08T03:01:47;4.70;93.60
6256;DHT22;3161;48.794;9.784;2023-03-08T03:04:15;4.70;93.80
6256;DHT22;3161;48.794;9.784;2023-03-08T03:06:42;4.70;93.70
6256;DHT22;3161;48.794;9.784;2023-03-08T03:09:10;4.80;93.60
6256;DHT22;3161;48.794;9.784;2023-03-08T03:11:40;4.70;93.60
6256;DHT22;3161;48.794;9.784;2023-03-08T03:14:07;4.70;93.80
6256;DHT22;3161;48.794;9.784;2023-03-08T03:16:36;4.70;93.90
6256;DHT22;3161;48.794;9.784;2023-03-08T03:19:04;4.70;93.90
6256;DHT22;3161;48.794;9.784;2023-03-08T03:21:32;4.70;93.90
6256;DHT22;3161;48.794;9.784;2023-03-08T03:24:02;4.70;94.20
6256;DHT22;3161;48.794;9.784;2023-03-08T03:26:29;4.70;94.30
6256;DHT22;3161;48.794;9.784;2023-03-08T03:28:57;4.70;94.30
6256;DHT22;3161;48.794;9.784;2023-03-08T03:31:26;4.80;94.60
6256;DHT22;3161;48.794;9.784;2023-03-08T03:33:54;4.80;95.00
6256;DHT22;3161;48.794;9.784;2023-03-08T03:36:22;4.70;95.00
6256;DHT22;3161;48.794;9.784;2023-03-08T03:38:50;4.70;95.70
6256;DHT22;3161;48.794;9.784;2023-03-08T03:41:20;4.70;95.70
6256;DHT22;3161;48.794;9.784;2023-03-08T03:43:48;4.70;96.00
6256;DHT22;3161;48.794;9.784;2023-03-08T03:46:17;4.70;96.10
6256;DHT22;3161;48.794;9.784;2023-03-08T03:48:46;4.70;95.70
6256;DHT22;3161;48.794;9.784;2023-03-08T03:51:15;4.70;95.50
6256;DHT22;3161;48.794;9.784;2023-03-08T03:53:44;4.60;95.50
6256;DHT22;3161;48.794;9.784;2023-03-08T03:56:14;4.60;95.20
6256;DHT22;3161;48.794;9.784;2023-03-08T03:58:42;4.60;95.10
6256;DHT22;3161;48.794;9.784;2023-03-08T04:01:21;4.60;95.20
6256;DHT22;3161;48.794;9.784;2023-03-08T04:03:52;4.50;95.10
6256;DHT22;3161;48.794;9.784;2023-03-08T04:06:25;4.50;95.30
6256;DHT22;3161;48.794;9.784;2023-03-08T04:08:55;4.40;95.40
6256;DHT22;3161;48.794;9.784;2023-03-08T04:11:26;4.40;95.80
6256;DHT22;3161;48.794;9.784;2023-03-08T04:13:53;4.30;96.00
6256;DHT22;3161;48.794;9.784;2023-03-08T04:16:23;4.30;96.20
6256;DHT22;3161;48.794;9.784;2023-03-08T04:18:58;4.20;96.40
6256;DHT22;3161;48.794;9.784;2023-03-08T04:21:22;4.10;96.50
6256;DHT22;3161;48.794;9.784;2023-03-08T04:23:50;4.10;96.90
6256;DHT22;3161;48.794;9.784;2023-03-08T04:26:18;4.00;97.20
6256;DHT22;3161;48.794;9.784;2023-03-08T04:28:46;4.00;97.00
6256;DHT22;3161;48.794;9.784;2023-03-08T04:31:22;3.90;96.80
6256;DHT22;3161;48.794;9.784;2023-03-08T04:33:50;3.90;96.70
6256;DHT22;3161;48.794;9.784;2023-03-08T04:36:19;3.90;97.00
6256;DHT22;3161;48.794;9.784;2023-03-08T04:38:54;3.80;97.40
6256;DHT22;3161;48.794;9.784;2023-03-08T04:41:21;3.80;97.10
6256;DHT22;3161;48.794;9.784;2023-03-08T04:46:37;3.70;97.90
6256;DHT22;3161;48.794;9.784;2023-03-08T04:49:05;3.60;97.90
6256;DHT22;3161;48.794;9.784;2023-03-08T04:51:32;3.60;98.20
6256;DHT22;3161;48.794;9.784;2023-03-08T04:54:00;3.60;98.30
6256;DHT22;3161;48.794;9.784;2023-03-08T04:56:29;3.60;98.60
6256;DHT22;3161;48.794;9.784;2023-03-08T04:58:57;3.60;98.80
6256;DHT22;3161;48.794;9.784;2023-03-08T05:01:24;3.60;99.10
6256;DHT22;3161;48.794;9.784;2023-03-08T05:03:54;3.50;98.90
6256;DHT22;3161;48.794;9.784;2023-03-08T05:06:24;3.50;99.10
6256;DHT22;3161;48.794;9.784;2023-03-08T05:08:53;3.60;99.10
6256;DHT22;3161;48.794;9.784;2023-03-08T05:11:26;3.60;99.70
6256;DHT22;3161;48.794;9.784;2023-03-08T05:13:55;3.60;99.70
6256;DHT22;3161;48.794;9.784;2023-03-08T05:16:25;3.60;99.90
6256;DHT22;3161;48.794;9.784;2023-03-08T05:18:53;3.60;99.90
6256;DHT22;3161;48.794;9.784;2023-03-08T05:21:21;3.60;99.90
6256;DHT22;3161;48.794;9.784;2023-03-08T05:23:50;3.50;99.90
6256;DHT22;3161;48.794;9.784;2023-03-08T05:26:17;3.60;99.90
6256;DHT22;3161;48.794;9.784;2023-03-08T05:28:45;3.60;99.90
6256;DHT22;3161;48.794;9.784;2023-03-08T05:31:18;3.60;99.90
6256;DHT22;3161;48.794;9.784;2023-03-08T05:33:48;3.60;99.90
6256;DHT22;3161;48.794;9.784;2023-03-08T05:36:17;3.60;99.90
6256;DHT22;3161;48.794;9.784;2023-03-08T05:38:45;3.60;99.90
6256;DHT22;3161;48.794;9.784;2023-03-08T05:41:14;3.50;99.90
6256;DHT22;3161;48.794;9.784;2023-03-08T05:43:42;3.60;99.90
6256;DHT22;3161;48.794;9.784;2023-03-08T05:46:17;3.60;99.90
6256;DHT22;3161;48.794;9.784;2023-03-08T05:48:45;3.60;99.90
6256;DHT22;3161;48.794;9.784;2023-03-08T05:51:15;3.60;99.90
6256;DHT22;3161;48.794;9.784;2023-03-08T05:53:44;3.60;99.90
6256;DHT22;3161;48.794;9.784;2023-03-08T05:56:14;3.70;99.90
6256;DHT22;3161;48.794;9.784;2023-03-08T05:58:42;3.70;99.90
6256;DHT22;3161;48.794;9.784;2023-03-08T06:01:15;3.70;99.90
6256;DHT22;3161;48.794;9.784;2023-03-08T06:03:45;3.70;99.90
6256;DHT22;3161;48.794;9.784;2023-03-08T06:06:13;3.70;99.90
6256;DHT22;3161;48.794;9.784;2023-03-08T06:08:41;3.70;99.90
6256;DHT22;3161;48.794;9.784;2023-03-08T06:11:09;3.70;99.90
6256;DHT22;3161;48.794;9.784;2023-03-08T06:13:37;3.70;99.90
6256;DHT22;3161;48.794;9.784;2023-03-08T06:16:05;3.80;99.90
6256;DHT22;3161;48.794;9.784;2023-03-08T06:18:34;3.80;99.90
6256;DHT22;3161;48.794;9.784;2023-03-08T06:21:04;3.80;99.90
6256;DHT22;3161;48.794;9.784;2023-03-08T06:23:33;3.80;99.90
6256;DHT22;3161;48.794;9.784;2023-03-08T06:26:01;3.90;99.90
6256;DHT22;3161;48.794;9.784;2023-03-08T06:28:29;3.90;99.90
6256;DHT22;3161;48.794;9.784;2023-03-08T06:30:56;3.90;99.90
6256;DHT22;3161;48.794;9.784;2023-03-08T06:33:27;3.90;99.90
6256;DHT22;3161;48.794;9.784;2023-03-08T06:36:06;4.00;99.90
6256;DHT22;3161;48.794;9.784;2023-03-08T06:38:26;4.00;99.90
6256;DHT22;3161;48.794;9.784;2023-03-08T06:40:54;4.10;99.90
6256;DHT22;3161;48.794;9.784;2023-03-08T06:43:21;4.10;99.90
6256;DHT22;3161;48.794;9.784;2023-03-08T06:45:49;4.20;99.90
6256;DHT22;3161;48.794;9.784;2023-03-08T06:48:17;4.20;99.90
6256;DHT22;3161;48.794;9.784;2023-03-08T06:50:45;4.30;99.90
6256;DHT22;3161;48.794;9.784;2023-03-08T06:53:13;4.30;99.90
6256;DHT22;3161;48.794;9.784;2023-03-08T06:55:41;4.30;99.90
6256;DHT22;3161;48.794;9.784;2023-03-08T06:58:08;4.30;99.90
6256;DHT22;3161;48.794;9.784;2023-03-08T07:00:36;4.40;99.90
6256;DHT22;3161;48.794;9.784;2023-03-08T07:03:04;4.40;99.90
6256;DHT22;3161;48.794;9.784;2023-03-08T07:05:32;4.50;99.90
6256;DHT22;3161;48.794;9.784;2023-03-08T07:07:59;4.50;99.90
6256;DHT22;3161;48.794;9.784;2023-03-08T07:10:27;4.60;99.90
6256;DHT22;3161;48.794;9.784;2023-03-08T07:12:54;4.60;99.90
6256;DHT22;3161;48.794;9.784;2023-03-08T07:15:23;4.70;99.90
6256;DHT22;3161;48.794;9.784;2023-03-08T07:17:52;4.70;99.90
6256;DHT22;3161;48.794;9.784;2023-03-08T07:20:23;4.80;99.90
6256;DHT22;3161;48.794;9.784;2023-03-08T07:22:50;4.90;99.90
6256;DHT22;3161;48.794;9.784;2023-03-08T07:25:19;4.90;99.90
6256;DHT22;3161;48.794;9.784;2023-03-08T07:27:47;5.00;99.90
6256;DHT22;3161;48.794;9.784;2023-03-08T07:30:16;5.10;99.90
6256;DHT22;3161;48.794;9.784;2023-03-08T07:32:44;5.20;99.90
6256;DHT22;3161;48.794;9.784;2023-03-08T07:35:13;5.30;99.90
6256;DHT22;3161;48.794;9.784;2023-03-08T07:40:35;5.40;99.90
6256;DHT22;3161;48.794;9.784;2023-03-08T07:43:02;5.60;99.90
6256;DHT22;3161;48.794;9.784;2023-03-08T07:45:30;5.70;99.90
6256;DHT22;3161;48.794;9.784;2023-03-08T07:47:58;5.80;99.90
6256;DHT22;3161;48.794;9.784;2023-03-08T07:50:25;5.80;99.90
6256;DHT22;3161;48.794;9.784;2023-03-08T07:52:53;5.90;99.90
6256;DHT22;3161;48.794;9.784;2023-03-08T07:55:21;6.00;99.90
6256;DHT22;3161;48.794;9.784;2023-03-08T07:57:49;6.10;99.90
6256;DHT22;3161;48.794;9.784;2023-03-08T08:00:17;6.20;99.90
6256;DHT22;3161;48.794;9.784;2023-03-08T08:02:45;6.20;99.90
6256;DHT22;3161;48.794;9.784;2023-03-08T08:05:13;6.30;99.90
6256;DHT22;3161;48.794;9.784;2023-03-08T08:07:41;6.30;99.90
6256;DHT22;3161;48.794;9.784;2023-03-08T08:10:09;6.40;99.90
6256;DHT22;3161;48.794;9.784;2023-03-08T08:12:37;6.40;99.90
6256;DHT22;3161;48.794;9.784;2023-03-08T08:15:05;6.50;99.90
6256;DHT22;3161;48.794;9.784;2023-03-08T08:17:33;6.50;99.90
6256;DHT22;3161;48.794;9.784;2023-03-08T08:20:00;6.50;99.90
6256;DHT22;3161;48.794;9.784;2023-03-08T08:22:28;6.60;99.90
6256;DHT22;3161;48.794;9.784;2023-03-08T08:24:55;6.60;99.90
6256;DHT22;3161;48.794;9.784;2023-03-08T08:27:23;6.60;99.90
6256;DHT22;3161;48.794;9.784;2023-03-08T08:29:50;6.60;99.90
6256;DHT22;3161;48.794;9.784;2023-03-08T08:32:18;6.60;99.90
6256;DHT22;3161;48.794;9.784;2023-03-08T08:34:45;6.50;99.90
6256;DHT22;3161;48.794;9.784;2023-03-08T08:37:13;6.60;99.90
6256;DHT22;3161;48.794;9.784;2023-03-08T08:39:48;6.60;99.90
6256;DHT22;3161;48.794;9.784;2023-03-08T08:42:15;6.70;99.90
6256;DHT22;3161;48.794;9.784;2023-03-08T08:44:43;6.70;99.90
6256;DHT22;3161;48.794;9.784;2023-03-08T08:47:10;6.70;99.90
6256;DHT22;3161;48.794;9.784;2023-03-08T08:49:38;6.80;99.90
6256;DHT22;3161;48.794;9.784;2023-03-08T08:52:05;6.80;99.90
6256;DHT22;3161;48.794;9.784;2023-03-08T08:54:33;6.80;99.90
6256;DHT22;3161;48.794;9.784;2023-03-08T08:57:00;6.90;99.90
6256;DHT22;3161;48.794;9.784;2023-03-08T08:59:28;6.90;99.90
6256;DHT22;3161;48.794;9.784;2023-03-08T09:01:55;6.80;99.90
6256;DHT22;3161;48.794;9.784;2023-03-08T09:04:23;6.80;99.90
6256;DHT22;3161;48.794;9.784;2023-03-08T09:06:50;6.80;99.90
6256;DHT22;3161;48.794;9.784;2023-03-08T09:09:19;6.90;99.90
6256;DHT22;3161;48.794;9.784;2023-03-08T09:11:46;7.00;99.90
6256;DHT22;3161;48.794;9.784;2023-03-08T09:14:14;7.00;99.90
6256;DHT22;3161;48.794;9.784;2023-03-08T09:16:41;7.10;99.90
6256;DHT22;3161;48.794;9.784;2023-03-08T09:19:09;7.20;99.90
6256;DHT22;3161;48.794;9.784;2023-03-08T09:21:37;7.20;99.90
6256;DHT22;3161;48.794;9.784;2023-03-08T09:24:06;7.20;99.90
6256;DHT22;3161;48.794;9.784;2023-03-08T09:26:35;7.20;99.90
6256;DHT22;3161;48.794;9.784;2023-03-08T09:29:11;7.20;99.90
6256;DHT22;3161;48.794;9.784;2023-03-08T09:31:38;7.30;99.90
6256;DHT22;3161;48.794;9.784;2023-03-08T09:34:09;7.40;99.90
6256;DHT22;3161;48.794;9.784;2023-03-08T09:36:37;7.50;99.90
6256;DHT22;3161;48.794;9.784;2023-03-08T09:39:06;7.50;99.90
6256;DHT22;3161;48.794;9.784;2023-03-08T09:41:57;7.60;99.90
6256;DHT22;3161;48.794;9.784;2023-03-08T09:44:38;7.60;99.90
6256;DHT22;3161;48.794;9.784;2023-03-08T09:49:53;7.70;99.90
6256;DHT22;3161;48.794;9.784;2023-03-08T09:52:31;7.70;99.90
6256;DHT22;3161;48.794;9.784;2023-03-08T09:54:58;7.70;99.90
6256;DHT22;3161;48.794;9.784;2023-03-08T09:57:29;7.70;99.90
6256;DHT22;3161;48.794;9.784;2023-03-08T09:59:59;7.70;99.90
6256;DHT22;3161;48.794;9.784;2023-03-08T10:02:47;7.80;99.90
6256;DHT22;3161;48.794;9.784;2023-03-08T10:05:22;7.80;99.90
6256;DHT22;3161;48.794;9.784;2023-03-08T10:08:12;7.80;99.90
6256;DHT22;3161;48.794;9.784;2023-03-08T10:16:28;7.80;99.90
6256;DHT22;3161;48.794;9.784;2023-03-08T10:21:44;7.90;99.90
6256;DHT22;3161;48.794;9.784;2023-03-08T10:24:21;7.90;99.90
6256;DHT22;3161;48.794;9.784;2023-03-08T10:26:53;7.90;99.90
6256;DHT22;3161;48.794;9.784;2023-03-08T10:29:21;7.90;99.90
6256;DHT22;3161;48.794;9.784;2023-03-08T10:31:50;8.00;99.90
6256;DHT22;3161;48.794;9.784;2023-03-08T10:34:20;8.00;99.90
6256;DHT22;3161;48.794;9.784;2023-03-08T10:37:02;8.10;99.90
6256;DHT22;3161;48.794;9.784;2023-03-08T10:39:21;8.10;99.90
6256;DHT22;3161;48.794;9.784;2023-03-08T10:41:53;8.20;99.90
6256;DHT22;3161;48.794;9.784;2023-03-08T10:44:53;8.30;99.90
6256;DHT22;3161;48.794;9.784;2023-03-08T10:47:22;8.30;99.90
6256;DHT22;3161;48.794;9.784;2023-03-08T10:50:12;8.40;99.90
6256;DHT22;3161;48.794;9.784;2023-03-08T10:52:40;8.40;99.90
6256;DHT22;3161;48.794;9.784;2023-03-08T10:55:18;8.40;99.90
6256;DHT22;3161;48.794;9.784;2023-03-08T10:58:00;8.50;99.90
6256;DHT22;3161;48.794;9.784;2023-03-08T11:00:36;8.50;99.90
6256;DHT22;3161;48.794;9.784;2023-03-08T11:03:18;7.70;99.90
6256;DHT22;3161;48.794;9.784;2023-03-08T11:11:19;8.80;99.90
6256;DHT22;3161;48.794;9.784;2023-03-08T11:13:49;8.80;99.90
6256;DHT22;3161;48.794;9.784;2023-03-08T11:22:08;9.00;99.90
6256;DHT22;3161;48.794;9.784;2023-03-08T11:30:21;9.30;99.90
6256;DHT22;3161;48.794;9.784;2023-03-08T11:33:02;9.40;99.90
6256;DHT22;3161;48.794;9.784;2023-03-08T11:43:44;10.10;99.90
6256;DHT22;3161;48.794;9.784;2023-03-08T11:46:20;10.20;99.90
6256;DHT22;3161;48.794;9.784;2023-03-08T11:51:24;10.60;99.90
6256;DHT22;3161;48.794;9.784;2023-03-08T11:56:46;10.70;99.90
6256;DHT22;3161;48.794;9.784;2023-03-08T11:59:42;10.70;99.90
6256;DHT22;3161;48.794;9.784;2023-03-08T12:02:20;10.80;99.90
6256;DHT22;3161;48.794;9.784;2023-03-08T12:05:04;10.90;99.90
6256;DHT22;3161;48.794;9.784;2023-03-08T12:07:38;11.00;99.90
6256;DHT22;3161;48.794;9.784;2023-03-08T12:10:17;11.10;99.90
6256;DHT22;3161;48.794;9.784;2023-03-08T12:12:58;11.20;99.90
6256;DHT22;3161;48.794;9.784;2023-03-08T12:15:38;11.30;99.90
6256;DHT22;3161;48.794;9.784;2023-03-08T12:18:26;11.40;99.90
6256;DHT22;3161;48.794;9.784;2023-03-08T12:20:49;11.50;99.90
6256;DHT22;3161;48.794;9.784;2023-03-08T12:23:32;11.60;99.90
6256;DHT22;3161;48.794;9.784;2023-03-08T12:26:24;11.70;99.90
6256;DHT22;3161;48.794;9.784;2023-03-08T12:28:55;11.80;99.90
6256;DHT22;3161;48.794;9.784;2023-03-08T12:31:32;11.80;99.90
6256;DHT22;3161;48.794;9.784;2023-03-08T12:33:57;11.80;99.90
6256;DHT22;3161;48.794;9.784;2023-03-08T12:36:40;11.80;99.90
6256;DHT22;3161;48.794;9.784;2023-03-08T12:39:32;11.90;99.90
6256;DHT22;3161;48.794;9.784;2023-03-08T12:41:38;11.90;99.90
6256;DHT22;3161;48.794;9.784;2023-03-08T12:44:23;11.90;99.90
6256;DHT22;3161;48.794;9.784;2023-03-08T12:47:16;11.90;99.90
6256;DHT22;3161;48.794;9.784;2023-03-08T12:49:38;12.00;99.90
6256;DHT22;3161;48.794;9.784;2023-03-08T12:52:45;12.00;99.90
6256;DHT22;3161;48.794;9.784;2023-03-08T12:54:35;12.00;99.90
6256;DHT22;3161;48.794;9.784;2023-03-08T12:57:13;12.00;99.90
6256;DHT22;3161;48.794;9.784;2023-03-08T12:59:36;12.00;99.90
6256;DHT22;3161;48.794;9.784;2023-03-08T13:05:01;12.00;99.90
6256;DHT22;3161;48.794;9.784;2023-03-08T13:07:38;12.10;99.90
6256;DHT22;3161;48.794;9.784;2023-03-08T13:10:28;12.20;99.90
6256;DHT22;3161;48.794;9.784;2023-03-08T13:15:38;12.30;99.90
6256;DHT22;3161;48.794;9.784;2023-03-08T13:23:28;12.40;99.90
6256;DHT22;3161;48.794;9.784;2023-03-08T13:28:46;12.50;99.90
6256;DHT22;3161;48.794;9.784;2023-03-08T13:31:16;12.60;99.90
6256;DHT22;3161;48.794;9.784;2023-03-08T13:33:47;12.60;99.90
6256;DHT22;3161;48.794;9.784;2023-03-08T13:36:28;12.60;99.90
6256;DHT22;3161;48.794;9.784;2023-03-08T13:39:04;12.60;99.90
6256;DHT22;3161;48.794;9.784;2023-03-08T13:41:38;12.60;99.90
6256;DHT22;3161;48.794;9.784;2023-03-08T13:47:03;12.70;99.90
6256;DHT22;3161;48.794;9.784;2023-03-08T13:49:39;12.70;99.90
6256;DHT22;3161;48.794;9.784;2023-03-08T13:52:12;12.80;99.90
6256;DHT22;3161;48.794;9.784;2023-03-08T13:54:41;12.90;99.90
6256;DHT22;3161;48.794;9.784;2023-03-08T13:57:22;12.90;99.90
6256;DHT22;3161;48.794;9.784;2023-03-08T13:59:53;12.90;99.90
6256;DHT22;3161;48.794;9.784;2023-03-08T14:02:26;13.00;99.90
6256;DHT22;3161;48.794;9.784;2023-03-08T14:04:55;13.00;99.90
6256;DHT22;3161;48.794;9.784;2023-03-08T14:07:28;13.00;99.90
6256;DHT22;3161;48.794;9.784;2023-03-08T14:09:57;13.00;99.90
6256;DHT22;3161;48.794;9.784;2023-03-08T14:12:28;13.00;99.90
6256;DHT22;3161;48.794;9.784;2023-03-08T14:14:58;13.00;99.90
6256;DHT22;3161;48.794;9.784;2023-03-08T14:17:29;13.10;99.90
6256;DHT22;3161;48.794;9.784;2023-03-08T14:20:00;13.10;99.90
6256;DHT22;3161;48.794;9.784;2023-03-08T14:22:29;13.10;99.90
6256;DHT22;3161;48.794;9.784;2023-03-08T14:24:59;13.10;99.90
6256;DHT22;3161;48.794;9.784;2023-03-08T14:27:38;13.20;99.90
6256;DHT22;3161;48.794;9.784;2023-03-08T14:30:16;13.20;99.90
6256;DHT22;3161;48.794;9.784;2023-03-08T14:35:37;13.20;99.90
6256;DHT22;3161;48.794;9.784;2023-03-08T14:38:39;13.20;99.90
6256;DHT22;3161;48.794;9.784;2023-03-08T14:40:46;13.20;99.90
6256;DHT22;3161;48.794;9.784;2023-03-08T14:43:21;13.20;99.90
6256;DHT22;3161;48.794;9.784;2023-03-08T14:45:55;13.20;99.90
6256;DHT22;3161;48.794;9.784;2023-03-08T14:48:34;13.20;99.90
6256;DHT22;3161;48.794;9.784;2023-03-08T14:53:59;13.20;99.90
6256;DHT22;3161;48.794;9.784;2023-03-08T14:56:28;13.10;99.90
6256;DHT22;3161;48.794;9.784;2023-03-08T14:58:58;13.10;99.90
6256;DHT22;3161;48.794;9.784;2023-03-08T15:01:29;13.10;99.90
6256;DHT22;3161;48.794;9.784;2023-03-08T15:03:57;13.10;99.90
6256;DHT22;3161;48.794;9.784;2023-03-08T15:06:30;13.20;99.90
6256;DHT22;3161;48.794;9.784;2023-03-08T15:09:00;13.20;99.90
6256;DHT22;3161;48.794;9.784;2023-03-08T15:11:28;13.00;99.90
6256;DHT22;3161;48.794;9.784;2023-03-08T15:13:58;12.80;99.90
6256;DHT22;3161;48.794;9.784;2023-03-08T15:16:26;12.60;99.90
6256;DHT22;3161;48.794;9.784;2023-03-08T15:18:54;12.40;99.90
6256;DHT22;3161;48.794;9.784;2023-03-08T15:21:24;12.30;99.90
6256;DHT22;3161;48.794;9.784;2023-03-08T15:23:52;12.20;99.90
6256;DHT22;3161;48.794;9.784;2023-03-08T15:26:29;12.20;99.90
6256;DHT22;3161;48.794;9.784;2023-03-08T15:29:00;12.30;99.90
6256;DHT22;3161;48.794;9.784;2023-03-08T15:31:30;12.30;99.90
6256;DHT22;3161;48.794;9.784;2023-03-08T15:33:58;12.40;99.90
6256;DHT22;3161;48.794;9.784;2023-03-08T15:36:27;12.40;99.90
6256;DHT22;3161;48.794;9.784;2023-03-08T15:38:56;12.50;99.90
6256;DHT22;3161;48.794;9.784;2023-03-08T15:41:25;12.60;99.90
6256;DHT22;3161;48.794;9.784;2023-03-08T15:43:52;12.70;99.90
6256;DHT22;3161;48.794;9.784;2023-03-08T15:46:20;12.80;99.90
6256;DHT22;3161;48.794;9.784;2023-03-08T15:48:47;12.80;99.90
6256;DHT22;3161;48.794;9.784;2023-03-08T15:51:18;12.90;99.90
6256;DHT22;3161;48.794;9.784;2023-03-08T15:53:47;12.90;99.90
6256;DHT22;3161;48.794;9.784;2023-03-08T15:56:15;13.00;99.90
6256;DHT22;3161;48.794;9.784;2023-03-08T15:58:43;13.00;99.90
6256;DHT22;3161;48.794;9.784;2023-03-08T16:01:10;13.00;99.90
6256;DHT22;3161;48.794;9.784;2023-03-08T16:03:38;13.00;99.90
6256;DHT22;3161;48.794;9.784;2023-03-08T16:06:10;13.10;99.90
6256;DHT22;3161;48.794;9.784;2023-03-08T16:08:38;13.00;99.90
6256;DHT22;3161;48.794;9.784;2023-03-08T16:11:07;14.00;99.90
6256;DHT22;3161;48.794;9.784;2023-03-08T16:13:35;13.10;99.90
6256;DHT22;3161;48.794;9.784;2023-03-08T16:16:04;13.10;99.90
6256;DHT22;3161;48.794;9.784;2023-03-08T16:18:33;13.10;99.90
6256;DHT22;3161;48.794;9.784;2023-03-08T16:21:06;13.00;99.90
6256;DHT22;3161;48.794;9.784;2023-03-08T16:23:35;13.10;99.90
6256;DHT22;3161;48.794;9.784;2023-03-08T16:26:06;13.10;99.90
6256;DHT22;3161;48.794;9.784;2023-03-08T16:28:33;13.10;99.90
6256;DHT22;3161;48.794;9.784;2023-03-08T16:31:02;13.10;99.90
6256;DHT22;3161;48.794;9.784;2023-03-08T16:33:30;13.00;99.90
6256;DHT22;3161;48.794;9.784;2023-03-08T16:35:57;13.00;99.90
6256;DHT22;3161;48.794;9.784;2023-03-08T16:38:25;13.10;99.90
6256;DHT22;3161;48.794;9.784;2023-03-08T16:40:52;13.10;99.90
6256;DHT22;3161;48.794;9.784;2023-03-08T16:43:30;13.00;99.90
6256;DHT22;3161;48.794;9.784;2023-03-08T16:45:59;13.10;99.90
6256;DHT22;3161;48.794;9.784;2023-03-08T16:48:28;13.10;99.90
6256;DHT22;3161;48.794;9.784;2023-03-08T16:50:58;13.10;99.90
6256;DHT22;3161;48.794;9.784;2023-03-08T16:53:26;13.10;99.90
6256;DHT22;3161;48.794;9.784;2023-03-08T16:55:55;13.10;99.90
6256;DHT22;3161;48.794;9.784;2023-03-08T16:58:22;13.00;99.90
6256;DHT22;3161;48.794;9.784;2023-03-08T17:00:50;12.80;99.90
6256;DHT22;3161;48.794;9.784;2023-03-08T17:03:17;12.70;99.90
6256;DHT22;3161;48.794;9.784;2023-03-08T17:05:45;12.60;99.90
6256;DHT22;3161;48.794;9.784;2023-03-08T17:08:14;12.60;99.90
6256;DHT22;3161;48.794;9.784;2023-03-08T17:10:43;12.60;99.90
6256;DHT22;3161;48.794;9.784;2023-03-08T17:13:12;12.50;99.90
6256;DHT22;3161;48.794;9.784;2023-03-08T17:15:41;12.50;99.90
6256;DHT22;3161;48.794;9.784;2023-03-08T17:18:09;12.30;99.90
6256;DHT22;3161;48.794;9.784;2023-03-08T17:20:41;12.30;99.90
6256;DHT22;3161;48.794;9.784;2023-03-08T17:23:10;12.20;99.90
6256;DHT22;3161;48.794;9.784;2023-03-08T17:25:39;12.10;99.90
6256;DHT22;3161;48.794;9.784;2023-03-08T17:28:08;12.00;99.90
6256;DHT22;3161;48.794;9.784;2023-03-08T17:30:38;12.00;99.90
6256;DHT22;3161;48.794;9.784;2023-03-08T17:33:07;11.90;99.90
6256;DHT22;3161;48.794;9.784;2023-03-08T17:35:38;11.80;99.90
6256;DHT22;3161;48.794;9.784;2023-03-08T17:38:06;11.80;99.90
6256;DHT22;3161;48.794;9.784;2023-03-08T17:40:34;11.80;99.90